sensor_id;sensor_type;location;lat;lon;timestamp;P1;durP1;ratioP1;P2;durP2;ratioP2
6561;SDS011;3314;50.890;4.722;2024-02-15T00:00:33;11.5;;;2.6;;
6561;SDS011;3314;50.890;4.722;2024-02-15T00:02:33;11.8;;;3.9;;
6561;SDS011;3314;50.890;4.722;2024-02-15T00:04:33;13.3;;;3.5;;
6561;SDS011;3314;50.890;4.722;2024-02-15T00:06:33;15.5;;;2.9;;
6561;SDS011;3314;50.890;4.722;2024-02-15T00:08:33;9.4;;;2.5;;
6561;SDS011;3314;50.890;4.722;2024-02-15T00:10:33;13.0;;;2.5;;
6561;SDS011;3314;50.890;4.722;2024-02-15T00:12:32;9.7;;;2.5;;
6561;SDS011;3314;50.890;4.722;2024-02-15T00:14:32;15.0;;;3.4;;
6561;SDS011;3314;50.890;4.722;2024-02-15T00:16:32;14.3;;;2.5;;
6561;SDS011;3314;50.890;4.722;2024-02-15T00:18:31;12.3;;;2.4;;
6561;SDS011;3314;50.890;4.722;2024-02-15T00:20:31;9.0;;;2.3;;
6561;SDS011;3314;50.890;4.722;2024-02-15T00:22:31;15.0;;;2.8;;
6561;SDS011;3314;50.890;4.722;2024-02-15T00:24:32;13.4;;;2.9;;
6561;SDS011;3314;50.890;4.722;2024-02-15T00:26:21;10.1;;;2.6;;
6561;SDS011;3314;50.890;4.722;2024-02-15T00:28:21;9.5;;;2.5;;
6561;SDS011;3314;50.890;4.722;2024-02-15T00:30:21;11.5;;;2.4;;
6561;SDS011;3314;50.890;4.722;2024-02-15T00:32:21;11.2;;;2.8;;
6561;SDS011;3314;50.890;4.722;2024-02-15T00:34:21;11.2;;;2.4;;
6561;SDS011;3314;50.890;4.722;2024-02-15T00:36:21;8.4;;;2.3;;
6561;SDS011;3314;50.890;4.722;2024-02-15T00:38:20;7.7;;;2.1;;
6561;SDS011;3314;50.890;4.722;2024-02-15T00:40:21;13.4;;;2.4;;
6561;SDS011;3314;50.890;4.722;2024-02-15T00:42:21;12.0;;;2.2;;
6561;SDS011;3314;50.890;4.722;2024-02-15T00:44:20;15.0;;;2.6;;
6561;SDS011;3314;50.890;4.722;2024-02-15T00:46:20;14.2;;;2.3;;
6561;SDS011;3314;50.890;4.722;2024-02-15T00:48:20;13.8;;;2.4;;
6561;SDS011;3314;50.890;4.722;2024-02-15T00:50:19;10.4;;;2.6;;
6561;SDS011;3314;50.890;4.722;2024-02-15T00:52:19;12.4;;;2.4;;
6561;SDS011;3314;50.890;4.722;2024-02-15T00:54:19;12.3;;;2.8;;
6561;SDS011;3314;50.890;4.722;2024-02-15T00:56:19;13.8;;;2.4;;
6561;SDS011;3314;50.890;4.722;2024-02-15T00:58:18;20.2;;;2.5;;
6561;SDS011;3314;50.890;4.722;2024-02-15T01:00:19;11.6;;;2.3;;
6561;SDS011;3314;50.890;4.722;2024-02-15T01:02:19;10.3;;;2.6;;
6561;SDS011;3314;50.890;4.722;2024-02-15T01:04:18;12.2;;;3.1;;
6561;SDS011;3314;50.890;4.722;2024-02-15T01:06:18;11.2;;;2.4;;
6561;SDS011;3314;50.890;4.722;2024-02-15T01:08:18;11.3;;;2.9;;
6561;SDS011;3314;50.890;4.722;2024-02-15T01:10:18;12.5;;;2.3;;
6561;SDS011;3314;50.890;4.722;2024-02-15T01:12:18;10.7;;;2.6;;
6561;SDS011;3314;50.890;4.722;2024-02-15T01:14:17;15.0;;;2.8;;
6561;SDS011;3314;50.890;4.722;2024-02-15T01:16:17;10.8;;;3.1;;
6561;SDS011;3314;50.890;4.722;2024-02-15T01:18:17;14.1;;;2.7;;
6561;SDS011;3314;50.890;4.722;2024-02-15T01:20:16;17.8;;;2.9;;
6561;SDS011;3314;50.890;4.722;2024-02-15T01:22:16;13.2;;;2.6;;
6561;SDS011;3314;50.890;4.722;2024-02-15T01:24:16;10.9;;;2.8;;
6561;SDS011;3314;50.890;4.722;2024-02-15T01:26:15;10.9;;;2.3;;
6561;SDS011;3314;50.890;4.722;2024-02-15T01:28:15;14.1;;;2.5;;
6561;SDS011;3314;50.890;4.722;2024-02-15T01:30:15;14.2;;;2.5;;
6561;SDS011;3314;50.890;4.722;2024-02-15T01:32:14;15.9;;;3.7;;
6561;SDS011;3314;50.890;4.722;2024-02-15T01:34:14;12.7;;;2.4;;
6561;SDS011;3314;50.890;4.722;2024-02-15T01:36:14;11.3;;;3.1;;
6561;SDS011;3314;50.890;4.722;2024-02-15T01:38:14;13.7;;;2.8;;
6561;SDS011;3314;50.890;4.722;2024-02-15T01:40:14;11.2;;;2.7;;
6561;SDS011;3314;50.890;4.722;2024-02-15T01:42:15;13.0;;;2.3;;
6561;SDS011;3314;50.890;4.722;2024-02-15T01:44:15;15.1;;;2.3;;
6561;SDS011;3314;50.890;4.722;2024-02-15T01:46:14;12.6;;;2.5;;
6561;SDS011;3314;50.890;4.722;2024-02-15T01:48:15;11.9;;;2.5;;
6561;SDS011;3314;50.890;4.722;2024-02-15T01:50:16;9.8;;;2.6;;
6561;SDS011;3314;50.890;4.722;2024-02-15T01:52:17;11.8;;;2.1;;
6561;SDS011;3314;50.890;4.722;2024-02-15T01:54:17;13.7;;;3.0;;
6561;SDS011;3314;50.890;4.722;2024-02-15T01:56:18;14.3;;;3.2;;
6561;SDS011;3314;50.890;4.722;2024-02-15T01:58:18;12.1;;;2.2;;
6561;SDS011;3314;50.890;4.722;2024-02-15T02:00:24;10.5;;;2.4;;
6561;SDS011;3314;50.890;4.722;2024-02-15T02:02:12;12.0;;;2.8;;
6561;SDS011;3314;50.890;4.722;2024-02-15T02:04:14;14.5;;;3.1;;
6561;SDS011;3314;50.890;4.722;2024-02-15T02:06:14;8.6;;;1.8;;
6561;SDS011;3314;50.890;4.722;2024-02-15T02:08:14;11.5;;;2.5;;
6561;SDS011;3314;50.890;4.722;2024-02-15T02:10:14;12.6;;;2.9;;
6561;SDS011;3314;50.890;4.722;2024-02-15T02:12:14;9.7;;;2.1;;
6561;SDS011;3314;50.890;4.722;2024-02-15T02:14:14;12.4;;;2.1;;
6561;SDS011;3314;50.890;4.722;2024-02-15T02:16:28;12.2;;;1.9;;
6561;SDS011;3314;50.890;4.722;2024-02-15T02:18:16;10.9;;;1.9;;
6561;SDS011;3314;50.890;4.722;2024-02-15T02:20:15;9.8;;;2.3;;
6561;SDS011;3314;50.890;4.722;2024-02-15T02:22:16;9.8;;;1.4;;
6561;SDS011;3314;50.890;4.722;2024-02-15T02:24:18;8.8;;;1.8;;
6561;SDS011;3314;50.890;4.722;2024-02-15T02:26:10;9.1;;;2.1;;
6561;SDS011;3314;50.890;4.722;2024-02-15T02:28:10;9.4;;;1.7;;
6561;SDS011;3314;50.890;4.722;2024-02-15T02:30:13;9.9;;;1.8;;
6561;SDS011;3314;50.890;4.722;2024-02-15T02:32:13;13.3;;;1.9;;
6561;SDS011;3314;50.890;4.722;2024-02-15T02:34:15;13.6;;;1.9;;
6561;SDS011;3314;50.890;4.722;2024-02-15T02:36:04;9.2;;;1.7;;
6561;SDS011;3314;50.890;4.722;2024-02-15T02:38:04;9.0;;;1.7;;
6561;SDS011;3314;50.890;4.722;2024-02-15T02:40:04;12.0;;;2.1;;
6561;SDS011;3314;50.890;4.722;2024-02-15T02:42:04;10.7;;;1.5;;
6561;SDS011;3314;50.890;4.722;2024-02-15T02:44:04;10.2;;;2.4;;
6561;SDS011;3314;50.890;4.722;2024-02-15T02:46:06;10.2;;;1.9;;
6561;SDS011;3314;50.890;4.722;2024-02-15T02:48:06;9.0;;;1.5;;
6561;SDS011;3314;50.890;4.722;2024-02-15T02:50:06;9.5;;;1.8;;
6561;SDS011;3314;50.890;4.722;2024-02-15T02:52:06;8.3;;;1.7;;
6561;SDS011;3314;50.890;4.722;2024-02-15T02:54:06;7.4;;;1.9;;
6561;SDS011;3314;50.890;4.722;2024-02-15T02:56:09;7.6;;;1.9;;
6561;SDS011;3314;50.890;4.722;2024-02-15T02:58:08;10.6;;;1.5;;
6561;SDS011;3314;50.890;4.722;2024-02-15T03:00:14;9.7;;;1.9;;
6561;SDS011;3314;50.890;4.722;2024-02-15T03:02:02;9.3;;;1.3;;
6561;SDS011;3314;50.890;4.722;2024-02-15T03:04:01;12.1;;;2.6;;
6561;SDS011;3314;50.890;4.722;2024-02-15T03:06:02;12.1;;;1.7;;
6561;SDS011;3314;50.890;4.722;2024-02-15T03:08:01;14.4;;;2.0;;
6561;SDS011;3314;50.890;4.722;2024-02-15T03:10:01;8.1;;;1.6;;
6561;SDS011;3314;50.890;4.722;2024-02-15T03:12:01;8.4;;;1.5;;
6561;SDS011;3314;50.890;4.722;2024-02-15T03:14:04;8.2;;;1.6;;
6561;SDS011;3314;50.890;4.722;2024-02-15T03:16:06;13.3;;;1.6;;
6561;SDS011;3314;50.890;4.722;2024-02-15T03:18:07;11.7;;;1.7;;
6561;SDS011;3314;50.890;4.722;2024-02-15T03:20:11;7.9;;;1.5;;
6561;SDS011;3314;50.890;4.722;2024-02-15T03:22:00;6.6;;;1.5;;
6561;SDS011;3314;50.890;4.722;2024-02-15T03:24:00;11.9;;;1.7;;
6561;SDS011;3314;50.890;4.722;2024-02-15T03:26:01;10.6;;;1.7;;
6561;SDS011;3314;50.890;4.722;2024-02-15T03:28:03;9.4;;;1.8;;
6561;SDS011;3314;50.890;4.722;2024-02-15T03:30:05;8.9;;;1.6;;
6561;SDS011;3314;50.890;4.722;2024-02-15T03:32:06;10.1;;;1.5;;
6561;SDS011;3314;50.890;4.722;2024-02-15T03:34:06;7.5;;;1.5;;
6561;SDS011;3314;50.890;4.722;2024-02-15T03:36:06;9.2;;;1.8;;
6561;SDS011;3314;50.890;4.722;2024-02-15T03:38:07;9.8;;;2.2;;
6561;SDS011;3314;50.890;4.722;2024-02-15T03:39:55;13.1;;;2.5;;
6561;SDS011;3314;50.890;4.722;2024-02-15T03:41:56;9.4;;;1.5;;
6561;SDS011;3314;50.890;4.722;2024-02-15T03:43:55;9.9;;;1.5;;
6561;SDS011;3314;50.890;4.722;2024-02-15T03:45:55;8.8;;;1.6;;
6561;SDS011;3314;50.890;4.722;2024-02-15T03:47:56;9.6;;;2.2;;
6561;SDS011;3314;50.890;4.722;2024-02-15T03:49:56;9.1;;;1.9;;
6561;SDS011;3314;50.890;4.722;2024-02-15T03:51:56;9.0;;;1.9;;
6561;SDS011;3314;50.890;4.722;2024-02-15T03:53:55;9.9;;;1.8;;
6561;SDS011;3314;50.890;4.722;2024-02-15T03:55:55;8.3;;;2.1;;
6561;SDS011;3314;50.890;4.722;2024-02-15T03:57:56;11.5;;;1.8;;
6561;SDS011;3314;50.890;4.722;2024-02-15T03:59:57;8.8;;;1.8;;
6561;SDS011;3314;50.890;4.722;2024-02-15T04:01:57;13.8;;;2.5;;
6561;SDS011;3314;50.890;4.722;2024-02-15T04:03:57;8.1;;;1.8;;
6561;SDS011;3314;50.890;4.722;2024-02-15T04:05:58;13.0;;;1.9;;
6561;SDS011;3314;50.890;4.722;2024-02-15T04:07:58;10.1;;;2.4;;
6561;SDS011;3314;50.890;4.722;2024-02-15T04:09:57;9.5;;;2.2;;
6561;SDS011;3314;50.890;4.722;2024-02-15T04:11:57;13.0;;;2.4;;
6561;SDS011;3314;50.890;4.722;2024-02-15T04:13:58;8.9;;;2.0;;
6561;SDS011;3314;50.890;4.722;2024-02-15T04:15:58;14.2;;;2.8;;
6561;SDS011;3314;50.890;4.722;2024-02-15T04:17:58;13.3;;;3.2;;
6561;SDS011;3314;50.890;4.722;2024-02-15T04:19:58;12.3;;;2.3;;
6561;SDS011;3314;50.890;4.722;2024-02-15T04:21:58;12.2;;;2.7;;
6561;SDS011;3314;50.890;4.722;2024-02-15T04:23:57;9.3;;;2.4;;
6561;SDS011;3314;50.890;4.722;2024-02-15T04:25:58;10.8;;;2.4;;
6561;SDS011;3314;50.890;4.722;2024-02-15T04:28:04;9.5;;;2.0;;
6561;SDS011;3314;50.890;4.722;2024-02-15T04:29:52;13.7;;;2.8;;
6561;SDS011;3314;50.890;4.722;2024-02-15T04:31:51;10.1;;;2.5;;
6561;SDS011;3314;50.890;4.722;2024-02-15T04:33:51;10.3;;;2.3;;
6561;SDS011;3314;50.890;4.722;2024-02-15T04:35:52;11.1;;;2.2;;
6561;SDS011;3314;50.890;4.722;2024-02-15T04:37:53;9.3;;;1.9;;
6561;SDS011;3314;50.890;4.722;2024-02-15T04:39:53;14.4;;;2.4;;
6561;SDS011;3314;50.890;4.722;2024-02-15T04:41:53;9.0;;;1.9;;
6561;SDS011;3314;50.890;4.722;2024-02-15T04:43:52;8.1;;;1.8;;
6561;SDS011;3314;50.890;4.722;2024-02-15T04:45:52;9.2;;;2.3;;
6561;SDS011;3314;50.890;4.722;2024-02-15T04:47:54;11.1;;;1.9;;
6561;SDS011;3314;50.890;4.722;2024-02-15T04:49:53;16.3;;;2.7;;
6561;SDS011;3314;50.890;4.722;2024-02-15T04:51:53;18.2;;;2.7;;
6561;SDS011;3314;50.890;4.722;2024-02-15T04:53:53;10.7;;;2.3;;
6561;SDS011;3314;50.890;4.722;2024-02-15T04:55:52;8.4;;;2.0;;
6561;SDS011;3314;50.890;4.722;2024-02-15T04:57:55;9.3;;;1.9;;
6561;SDS011;3314;50.890;4.722;2024-02-15T04:59:55;10.4;;;2.0;;
6561;SDS011;3314;50.890;4.722;2024-02-15T05:01:57;11.8;;;2.2;;
6561;SDS011;3314;50.890;4.722;2024-02-15T05:03:45;8.5;;;2.1;;
6561;SDS011;3314;50.890;4.722;2024-02-15T05:05:45;8.8;;;2.0;;
6561;SDS011;3314;50.890;4.722;2024-02-15T05:07:45;9.9;;;2.0;;
6561;SDS011;3314;50.890;4.722;2024-02-15T05:09:44;11.0;;;2.4;;
6561;SDS011;3314;50.890;4.722;2024-02-15T05:11:47;10.0;;;2.6;;
6561;SDS011;3314;50.890;4.722;2024-02-15T05:13:47;8.0;;;2.4;;
6561;SDS011;3314;50.890;4.722;2024-02-15T05:15:46;11.3;;;1.9;;
6561;SDS011;3314;50.890;4.722;2024-02-15T05:17:46;10.5;;;1.9;;
6561;SDS011;3314;50.890;4.722;2024-02-15T05:19:46;10.9;;;2.5;;
6561;SDS011;3314;50.890;4.722;2024-02-15T05:21:46;11.4;;;2.1;;
6561;SDS011;3314;50.890;4.722;2024-02-15T05:23:46;11.2;;;2.4;;
6561;SDS011;3314;50.890;4.722;2024-02-15T05:25:46;11.3;;;1.6;;
6561;SDS011;3314;50.890;4.722;2024-02-15T05:27:47;10.9;;;2.6;;
6561;SDS011;3314;50.890;4.722;2024-02-15T05:29:46;11.1;;;2.2;;
6561;SDS011;3314;50.890;4.722;2024-02-15T05:31:46;10.5;;;1.7;;
6561;SDS011;3314;50.890;4.722;2024-02-15T05:33:47;8.1;;;1.4;;
6561;SDS011;3314;50.890;4.722;2024-02-15T05:35:50;9.2;;;1.6;;
6561;SDS011;3314;50.890;4.722;2024-02-15T05:37:53;9.1;;;1.7;;
6561;SDS011;3314;50.890;4.722;2024-02-15T05:39:40;10.8;;;2.4;;
6561;SDS011;3314;50.890;4.722;2024-02-15T05:41:40;9.7;;;1.7;;
6561;SDS011;3314;50.890;4.722;2024-02-15T05:43:42;10.8;;;2.1;;
6561;SDS011;3314;50.890;4.722;2024-02-15T05:45:41;13.1;;;2.3;;
6561;SDS011;3314;50.890;4.722;2024-02-15T05:47:41;11.0;;;2.7;;
6561;SDS011;3314;50.890;4.722;2024-02-15T05:49:41;9.8;;;1.5;;
6561;SDS011;3314;50.890;4.722;2024-02-15T05:51:41;10.3;;;1.9;;
6561;SDS011;3314;50.890;4.722;2024-02-15T05:53:41;9.0;;;2.2;;
6561;SDS011;3314;50.890;4.722;2024-02-15T05:55:44;9.9;;;2.1;;
6561;SDS011;3314;50.890;4.722;2024-02-15T05:57:44;11.1;;;2.4;;
6561;SDS011;3314;50.890;4.722;2024-02-15T05:59:44;9.9;;;2.1;;
6561;SDS011;3314;50.890;4.722;2024-02-15T06:01:48;9.2;;;1.9;;
6561;SDS011;3314;50.890;4.722;2024-02-15T06:03:38;11.5;;;2.3;;
6561;SDS011;3314;50.890;4.722;2024-02-15T06:05:39;8.5;;;2.2;;
6561;SDS011;3314;50.890;4.722;2024-02-15T06:07:40;8.9;;;1.6;;
6561;SDS011;3314;50.890;4.722;2024-02-15T06:09:40;7.6;;;1.7;;
6561;SDS011;3314;50.890;4.722;2024-02-15T06:11:40;8.7;;;2.1;;
6561;SDS011;3314;50.890;4.722;2024-02-15T06:13:41;9.9;;;1.6;;
6561;SDS011;3314;50.890;4.722;2024-02-15T06:15:41;9.9;;;1.6;;
6561;SDS011;3314;50.890;4.722;2024-02-15T06:17:41;10.6;;;1.8;;
6561;SDS011;3314;50.890;4.722;2024-02-15T06:19:41;14.4;;;2.0;;
6561;SDS011;3314;50.890;4.722;2024-02-15T06:21:41;9.5;;;1.3;;
6561;SDS011;3314;50.890;4.722;2024-02-15T06:23:41;7.5;;;1.4;;
6561;SDS011;3314;50.890;4.722;2024-02-15T06:25:40;8.7;;;2.5;;
6561;SDS011;3314;50.890;4.722;2024-02-15T06:27:42;7.5;;;1.9;;
6561;SDS011;3314;50.890;4.722;2024-02-15T06:31:49;6.6;;;1.3;;
6561;SDS011;3314;50.890;4.722;2024-02-15T06:34:07;10.7;;;1.7;;
6561;SDS011;3314;50.890;4.722;2024-02-15T06:36:25;6.8;;;1.5;;
6561;SDS011;3314;50.890;4.722;2024-02-15T06:38:43;8.4;;;1.8;;
6561;SDS011;3314;50.890;4.722;2024-02-15T06:39:58;9.0;;;1.2;;
6561;SDS011;3314;50.890;4.722;2024-02-15T06:40:10;8.3;;;1.6;;
6561;SDS011;3314;50.890;4.722;2024-02-15T06:41:34;6.5;;;1.0;;
6561;SDS011;3314;50.890;4.722;2024-02-15T06:43:35;6.9;;;1.1;;
6561;SDS011;3314;50.890;4.722;2024-02-15T06:45:39;9.2;;;1.3;;
6561;SDS011;3314;50.890;4.722;2024-02-15T06:47:41;6.9;;;1.4;;
6561;SDS011;3314;50.890;4.722;2024-02-15T06:49:41;8.4;;;1.0;;
6561;SDS011;3314;50.890;4.722;2024-02-15T06:51:44;8.2;;;1.5;;
6561;SDS011;3314;50.890;4.722;2024-02-15T06:53:34;8.4;;;1.1;;
6561;SDS011;3314;50.890;4.722;2024-02-15T06:55:34;7.2;;;1.3;;
6561;SDS011;3314;50.890;4.722;2024-02-15T06:57:34;8.2;;;1.2;;
6561;SDS011;3314;50.890;4.722;2024-02-15T06:59:34;9.3;;;1.8;;
6561;SDS011;3314;50.890;4.722;2024-02-15T07:01:34;11.8;;;1.5;;
6561;SDS011;3314;50.890;4.722;2024-02-15T07:03:34;8.3;;;1.4;;
6561;SDS011;3314;50.890;4.722;2024-02-15T07:05:34;6.3;;;1.4;;
6561;SDS011;3314;50.890;4.722;2024-02-15T07:07:34;10.5;;;1.8;;
6561;SDS011;3314;50.890;4.722;2024-02-15T07:09:34;10.5;;;1.6;;
6561;SDS011;3314;50.890;4.722;2024-02-15T07:11:34;8.7;;;1.5;;
6561;SDS011;3314;50.890;4.722;2024-02-15T07:13:34;8.5;;;1.6;;
6561;SDS011;3314;50.890;4.722;2024-02-15T07:15:38;8.6;;;1.8;;
6561;SDS011;3314;50.890;4.722;2024-02-15T07:17:37;7.4;;;1.4;;
6561;SDS011;3314;50.890;4.722;2024-02-15T07:19:42;8.2;;;1.4;;
6561;SDS011;3314;50.890;4.722;2024-02-15T07:21:32;7.8;;;1.4;;
6561;SDS011;3314;50.890;4.722;2024-02-15T07:23:31;9.2;;;1.4;;
6561;SDS011;3314;50.890;4.722;2024-02-15T07:25:31;6.8;;;1.4;;
6561;SDS011;3314;50.890;4.722;2024-02-15T07:27:31;12.1;;;2.2;;
6561;SDS011;3314;50.890;4.722;2024-02-15T07:29:31;6.6;;;1.5;;
6561;SDS011;3314;50.890;4.722;2024-02-15T07:31:31;10.0;;;1.7;;
6561;SDS011;3314;50.890;4.722;2024-02-15T07:33:31;9.2;;;1.9;;
6561;SDS011;3314;50.890;4.722;2024-02-15T07:35:31;9.9;;;1.7;;
6561;SDS011;3314;50.890;4.722;2024-02-15T07:37:30;10.4;;;1.5;;
6561;SDS011;3314;50.890;4.722;2024-02-15T07:39:30;9.4;;;1.7;;
6561;SDS011;3314;50.890;4.722;2024-02-15T07:41:31;6.9;;;1.4;;
6561;SDS011;3314;50.890;4.722;2024-02-15T07:43:31;11.0;;;2.2;;
6561;SDS011;3314;50.890;4.722;2024-02-15T07:45:33;8.8;;;1.8;;
6561;SDS011;3314;50.890;4.722;2024-02-15T07:47:32;9.5;;;1.4;;
6561;SDS011;3314;50.890;4.722;2024-02-15T07:49:33;9.1;;;1.6;;
6561;SDS011;3314;50.890;4.722;2024-02-15T07:51:33;8.5;;;1.5;;
6561;SDS011;3314;50.890;4.722;2024-02-15T07:53:33;9.6;;;1.6;;
6561;SDS011;3314;50.890;4.722;2024-02-15T07:55:32;13.6;;;1.7;;
6561;SDS011;3314;50.890;4.722;2024-02-15T07:57:32;9.1;;;1.9;;
6561;SDS011;3314;50.890;4.722;2024-02-15T07:59:32;8.0;;;1.5;;
6561;SDS011;3314;50.890;4.722;2024-02-15T08:01:31;9.2;;;1.6;;
6561;SDS011;3314;50.890;4.722;2024-02-15T08:03:31;9.5;;;2.0;;
6561;SDS011;3314;50.890;4.722;2024-02-15T08:05:31;9.5;;;1.4;;
6561;SDS011;3314;50.890;4.722;2024-02-15T08:07:35;8.7;;;2.1;;
6561;SDS011;3314;50.890;4.722;2024-02-15T08:09:24;12.7;;;1.9;;
6561;SDS011;3314;50.890;4.722;2024-02-15T08:11:26;7.4;;;1.4;;
6561;SDS011;3314;50.890;4.722;2024-02-15T08:13:29;10.6;;;1.8;;
6561;SDS011;3314;50.890;4.722;2024-02-15T08:15:29;7.5;;;1.8;;
6561;SDS011;3314;50.890;4.722;2024-02-15T08:17:29;9.8;;;1.3;;
6561;SDS011;3314;50.890;4.722;2024-02-15T08:19:29;12.1;;;2.1;;
6561;SDS011;3314;50.890;4.722;2024-02-15T08:21:30;8.2;;;1.2;;
6561;SDS011;3314;50.890;4.722;2024-02-15T08:23:19;9.0;;;1.2;;
6561;SDS011;3314;50.890;4.722;2024-02-15T08:25:19;9.9;;;2.1;;
6561;SDS011;3314;50.890;4.722;2024-02-15T08:27:19;9.6;;;1.5;;
6561;SDS011;3314;50.890;4.722;2024-02-15T08:29:18;8.8;;;1.9;;
6561;SDS011;3314;50.890;4.722;2024-02-15T08:31:20;11.8;;;1.7;;
6561;SDS011;3314;50.890;4.722;2024-02-15T08:33:20;6.9;;;1.6;;
6561;SDS011;3314;50.890;4.722;2024-02-15T08:35:20;9.9;;;1.8;;
6561;SDS011;3314;50.890;4.722;2024-02-15T08:37:19;12.8;;;1.9;;
6561;SDS011;3314;50.890;4.722;2024-02-15T08:39:19;9.6;;;1.4;;
6561;SDS011;3314;50.890;4.722;2024-02-15T08:41:21;8.0;;;1.7;;
6561;SDS011;3314;50.890;4.722;2024-02-15T08:43:20;11.7;;;1.6;;
6561;SDS011;3314;50.890;4.722;2024-02-15T08:45:20;10.3;;;1.5;;
6561;SDS011;3314;50.890;4.722;2024-02-15T08:47:21;8.0;;;2.0;;
6561;SDS011;3314;50.890;4.722;2024-02-15T08:49:21;8.6;;;1.8;;
6561;SDS011;3314;50.890;4.722;2024-02-15T08:51:23;10.5;;;1.8;;
6561;SDS011;3314;50.890;4.722;2024-02-15T08:53:22;8.6;;;2.0;;
6561;SDS011;3314;50.890;4.722;2024-02-15T08:55:27;8.3;;;1.2;;
6561;SDS011;3314;50.890;4.722;2024-02-15T08:57:15;7.7;;;1.4;;
6561;SDS011;3314;50.890;4.722;2024-02-15T08:59:15;11.2;;;1.7;;
6561;SDS011;3314;50.890;4.722;2024-02-15T09:01:16;10.7;;;1.5;;
6561;SDS011;3314;50.890;4.722;2024-02-15T09:03:16;11.7;;;1.4;;
6561;SDS011;3314;50.890;4.722;2024-02-15T09:05:15;7.1;;;1.5;;
6561;SDS011;3314;50.890;4.722;2024-02-15T09:07:15;8.2;;;1.5;;
6561;SDS011;3314;50.890;4.722;2024-02-15T09:09:15;9.0;;;1.4;;
6561;SDS011;3314;50.890;4.722;2024-02-15T09:11:15;8.8;;;1.1;;
6561;SDS011;3314;50.890;4.722;2024-02-15T09:13:15;8.4;;;1.7;;
6561;SDS011;3314;50.890;4.722;2024-02-15T09:15:15;12.2;;;1.3;;
6561;SDS011;3314;50.890;4.722;2024-02-15T09:17:15;12.0;;;1.3;;
6561;SDS011;3314;50.890;4.722;2024-02-15T09:19:14;11.8;;;1.5;;
6561;SDS011;3314;50.890;4.722;2024-02-15T09:21:15;9.7;;;1.4;;
6561;SDS011;3314;50.890;4.722;2024-02-15T09:23:15;11.4;;;1.7;;
6561;SDS011;3314;50.890;4.722;2024-02-15T09:25:15;8.2;;;1.8;;
6561;SDS011;3314;50.890;4.722;2024-02-15T09:27:15;9.2;;;1.3;;
6561;SDS011;3314;50.890;4.722;2024-02-15T09:29:14;7.6;;;1.4;;
6561;SDS011;3314;50.890;4.722;2024-02-15T09:31:14;8.1;;;1.2;;
6561;SDS011;3314;50.890;4.722;2024-02-15T09:33:19;10.8;;;1.2;;
6561;SDS011;3314;50.890;4.722;2024-02-15T09:35:21;9.8;;;1.6;;
6561;SDS011;3314;50.890;4.722;2024-02-15T09:37:10;10.3;;;1.8;;
6561;SDS011;3314;50.890;4.722;2024-02-15T09:39:13;10.3;;;1.6;;
6561;SDS011;3314;50.890;4.722;2024-02-15T09:41:13;8.5;;;1.5;;
6561;SDS011;3314;50.890;4.722;2024-02-15T09:43:13;8.5;;;2.2;;
6561;SDS011;3314;50.890;4.722;2024-02-15T09:45:15;7.8;;;1.6;;
6561;SDS011;3314;50.890;4.722;2024-02-15T09:47:15;10.4;;;1.6;;
6561;SDS011;3314;50.890;4.722;2024-02-15T09:49:16;7.9;;;1.5;;
6561;SDS011;3314;50.890;4.722;2024-02-15T09:51:16;11.3;;;1.7;;
6561;SDS011;3314;50.890;4.722;2024-02-15T09:53:19;9.2;;;1.7;;
6561;SDS011;3314;50.890;4.722;2024-02-15T09:55:11;10.7;;;1.3;;
6561;SDS011;3314;50.890;4.722;2024-02-15T09:57:11;7.6;;;1.6;;
6561;SDS011;3314;50.890;4.722;2024-02-15T09:59:11;7.8;;;1.6;;
6561;SDS011;3314;50.890;4.722;2024-02-15T10:01:14;7.0;;;1.6;;
6561;SDS011;3314;50.890;4.722;2024-02-15T10:03:18;11.7;;;1.9;;
6561;SDS011;3314;50.890;4.722;2024-02-15T10:05:07;8.6;;;1.3;;
6561;SDS011;3314;50.890;4.722;2024-02-15T10:07:09;8.8;;;1.6;;
6561;SDS011;3314;50.890;4.722;2024-02-15T10:09:30;8.8;;;1.4;;
6561;SDS011;3314;50.890;4.722;2024-02-15T10:11:07;7.6;;;1.3;;
6561;SDS011;3314;50.890;4.722;2024-02-15T10:13:08;8.7;;;1.7;;
6561;SDS011;3314;50.890;4.722;2024-02-15T10:15:12;8.7;;;1.6;;
6561;SDS011;3314;50.890;4.722;2024-02-15T10:17:14;7.6;;;1.4;;
6561;SDS011;3314;50.890;4.722;2024-02-15T10:19:15;7.3;;;1.5;;
6561;SDS011;3314;50.890;4.722;2024-02-15T10:21:05;8.6;;;1.3;;
6561;SDS011;3314;50.890;4.722;2024-02-15T10:23:09;6.6;;;1.5;;
6561;SDS011;3314;50.890;4.722;2024-02-15T10:25:10;11.6;;;1.8;;
6561;SDS011;3314;50.890;4.722;2024-02-15T10:27:11;9.1;;;1.7;;
6561;SDS011;3314;50.890;4.722;2024-02-15T10:29:11;9.9;;;1.4;;
6561;SDS011;3314;50.890;4.722;2024-02-15T10:31:13;7.5;;;1.8;;
6561;SDS011;3314;50.890;4.722;2024-02-15T10:33:18;7.5;;;1.2;;
6561;SDS011;3314;50.890;4.722;2024-02-15T10:35:06;7.4;;;1.2;;
6561;SDS011;3314;50.890;4.722;2024-02-15T10:37:10;7.6;;;1.5;;
6561;SDS011;3314;50.890;4.722;2024-02-15T10:39:11;8.0;;;1.1;;
6561;SDS011;3314;50.890;4.722;2024-02-15T10:41:11;7.2;;;1.1;;
6561;SDS011;3314;50.890;4.722;2024-02-15T10:43:13;7.4;;;1.4;;
6561;SDS011;3314;50.890;4.722;2024-02-15T10:45:05;6.5;;;1.1;;
6561;SDS011;3314;50.890;4.722;2024-02-15T10:47:07;6.6;;;1.1;;
6561;SDS011;3314;50.890;4.722;2024-02-15T10:49:07;7.7;;;1.5;;
6561;SDS011;3314;50.890;4.722;2024-02-15T10:51:09;8.7;;;1.3;;
6561;SDS011;3314;50.890;4.722;2024-02-15T10:53:12;7.4;;;1.4;;
6561;SDS011;3314;50.890;4.722;2024-02-15T10:55:09;8.7;;;1.6;;
6561;SDS011;3314;50.890;4.722;2024-02-15T10:57:10;10.1;;;1.6;;
6561;SDS011;3314;50.890;4.722;2024-02-15T10:59:11;7.6;;;1.5;;
6561;SDS011;3314;50.890;4.722;2024-02-15T11:01:02;6.7;;;1.0;;
6561;SDS011;3314;50.890;4.722;2024-02-15T11:03:06;7.2;;;0.9;;
6561;SDS011;3314;50.890;4.722;2024-02-15T11:05:10;6.9;;;1.4;;
6561;SDS011;3314;50.890;4.722;2024-02-15T11:07:04;6.1;;;1.0;;
6561;SDS011;3314;50.890;4.722;2024-02-15T11:09:06;8.3;;;1.1;;
6561;SDS011;3314;50.890;4.722;2024-02-15T11:11:07;10.0;;;1.3;;
6561;SDS011;3314;50.890;4.722;2024-02-15T11:13:07;9.4;;;1.3;;
6561;SDS011;3314;50.890;4.722;2024-02-15T11:15:07;9.4;;;1.0;;
6561;SDS011;3314;50.890;4.722;2024-02-15T11:17:07;8.8;;;1.2;;
6561;SDS011;3314;50.890;4.722;2024-02-15T11:19:18;6.7;;;1.2;;
6561;SDS011;3314;50.890;4.722;2024-02-15T11:21:03;8.3;;;1.0;;
6561;SDS011;3314;50.890;4.722;2024-02-15T11:23:04;6.8;;;1.0;;
6561;SDS011;3314;50.890;4.722;2024-02-15T11:25:09;11.3;;;1.8;;
6561;SDS011;3314;50.890;4.722;2024-02-15T11:26:58;6.3;;;1.1;;
6561;SDS011;3314;50.890;4.722;2024-02-15T11:28:58;8.2;;;1.2;;
6561;SDS011;3314;50.890;4.722;2024-02-15T11:31:00;8.6;;;1.1;;
6561;SDS011;3314;50.890;4.722;2024-02-15T11:33:00;6.4;;;1.2;;
6561;SDS011;3314;50.890;4.722;2024-02-15T11:35:06;6.2;;;1.0;;
6561;SDS011;3314;50.890;4.722;2024-02-15T11:37:06;7.2;;;1.0;;
6561;SDS011;3314;50.890;4.722;2024-02-15T11:38:56;8.2;;;0.9;;
6561;SDS011;3314;50.890;4.722;2024-02-15T11:40:59;7.2;;;0.8;;
6561;SDS011;3314;50.890;4.722;2024-02-15T11:43:00;7.4;;;1.1;;
6561;SDS011;3314;50.890;4.722;2024-02-15T11:45:04;6.4;;;0.9;;
6561;SDS011;3314;50.890;4.722;2024-02-15T11:47:04;6.9;;;1.0;;
6561;SDS011;3314;50.890;4.722;2024-02-15T11:49:05;6.9;;;1.2;;
6561;SDS011;3314;50.890;4.722;2024-02-15T11:50:55;7.6;;;1.0;;
6561;SDS011;3314;50.890;4.722;2024-02-15T11:53:01;12.4;;;1.5;;
6561;SDS011;3314;50.890;4.722;2024-02-15T11:55:05;6.2;;;1.0;;
6561;SDS011;3314;50.890;4.722;2024-02-15T11:57:05;7.1;;;0.9;;
6561;SDS011;3314;50.890;4.722;2024-02-15T11:59:03;7.3;;;1.0;;
6561;SDS011;3314;50.890;4.722;2024-02-15T12:03:10;8.1;;;1.1;;
6561;SDS011;3314;50.890;4.722;2024-02-15T12:05:28;6.5;;;0.9;;
6561;SDS011;3314;50.890;4.722;2024-02-15T12:07:51;5.8;;;0.9;;
6561;SDS011;3314;50.890;4.722;2024-02-15T12:12:32;8.2;;;1.5;;
6561;SDS011;3314;50.890;4.722;2024-02-15T12:14:50;7.2;;;1.0;;
6561;SDS011;3314;50.890;4.722;2024-02-15T12:17:15;7.6;;;0.8;;
6561;SDS011;3314;50.890;4.722;2024-02-15T12:19:33;6.5;;;0.8;;
6561;SDS011;3314;50.890;4.722;2024-02-15T12:19:46;8.3;;;1.0;;
6561;SDS011;3314;50.890;4.722;2024-02-15T12:19:59;7.9;;;1.4;;
6561;SDS011;3314;50.890;4.722;2024-02-15T12:21:00;9.4;;;1.4;;
6561;SDS011;3314;50.890;4.722;2024-02-15T12:23:01;8.2;;;1.2;;
6561;SDS011;3314;50.890;4.722;2024-02-15T12:25:01;8.9;;;0.9;;
6561;SDS011;3314;50.890;4.722;2024-02-15T12:26:51;9.5;;;1.3;;
6561;SDS011;3314;50.890;4.722;2024-02-15T12:28:51;9.1;;;1.6;;
6561;SDS011;3314;50.890;4.722;2024-02-15T12:30:54;6.1;;;0.9;;
6561;SDS011;3314;50.890;4.722;2024-02-15T12:32:54;6.9;;;1.1;;
6561;SDS011;3314;50.890;4.722;2024-02-15T12:35:09;8.0;;;1.5;;
6561;SDS011;3314;50.890;4.722;2024-02-15T12:37:12;8.2;;;1.0;;
6561;SDS011;3314;50.890;4.722;2024-02-15T12:39:00;6.8;;;0.9;;
6561;SDS011;3314;50.890;4.722;2024-02-15T12:40:50;7.9;;;0.9;;
6561;SDS011;3314;50.890;4.722;2024-02-15T12:42:50;6.5;;;1.0;;
6561;SDS011;3314;50.890;4.722;2024-02-15T12:44:52;6.8;;;1.0;;